createdAt,value
2022-08-25T00:04:07.951Z,17.78
2022-08-25T00:09:38.695Z,17.76
2022-08-25T00:14:55.909Z,17.77
2022-08-25T00:20:58.673Z,17.76
2022-08-25T00:26:32.477Z,17.76
2022-08-25T00:32:25.689Z,17.77
2022-08-25T00:38:01.248Z,17.78
2022-08-25T00:43:46.256Z,17.81
2022-08-25T00:49:25.709Z,17.83
2022-08-25T00:55:11.651Z,17.86
2022-08-25T01:00:50.674Z,17.89
2022-08-25T01:06:14.004Z,17.90
2022-08-25T01:11:21.671Z,17.92
2022-08-25T01:16:44.072Z,17.93
2022-08-25T01:22:13.567Z,17.95
2022-08-25T01:27:18.940Z,17.96
2022-08-25T01:32:46.938Z,17.95
2022-08-25T01:38:31.418Z,17.95
2022-08-25T01:43:58.688Z,17.93
2022-08-25T01:49:15.130Z,17.94
2022-08-25T01:54:23.412Z,17.98
2022-08-25T01:59:50.472Z,18.06
2022-08-25T02:04:55.617Z,18.11
2022-08-25T02:10:15.799Z,18.12
2022-08-25T02:15:54.981Z,18.11
2022-08-25T02:21:18.245Z,18.08
2022-08-25T02:26:36.371Z,18.05
2022-08-25T02:31:59.942Z,18.02
2022-08-25T02:37:33.534Z,17.97
2022-08-25T02:42:59.998Z,17.94
2022-08-25T02:48:33.373Z,17.92
2022-08-25T02:53:46.337Z,17.88
2022-08-25T02:58:51.047Z,17.86
2022-08-25T03:04:12.268Z,17.84
2022-08-25T03:09:50.296Z,17.82
2022-08-25T03:14:58.015Z,17.80
2022-08-25T03:20:39.214Z,17.79
2022-08-25T03:26:27.109Z,17.78
2022-08-25T03:31:47.964Z,17.77
2022-08-25T03:37:10.412Z,17.75
2022-08-25T03:42:25.143Z,17.74
2022-08-25T03:48:19.712Z,17.73
2022-08-25T03:54:01.935Z,17.73
2022-08-25T03:59:30.088Z,17.73
2022-08-25T04:04:50.553Z,17.73
2022-08-25T04:10:29.954Z,17.73
2022-08-25T04:16:14.331Z,17.73
2022-08-25T04:21:49.526Z,17.74
2022-08-25T04:27:16.581Z,17.73
2022-08-25T04:33:07.357Z,17.73
2022-08-25T04:38:33.190Z,17.73
2022-08-25T04:44:01.206Z,17.72
2022-08-25T04:50:04.715Z,17.73
2022-08-25T04:56:03.705Z,17.80
2022-08-25T05:02:22.716Z,17.85
2022-08-25T05:08:25.763Z,17.94
2022-08-25T05:13:43.112Z,18.04
2022-08-25T05:19:53.841Z,18.21
2022-08-25T05:25:29.036Z,18.42
2022-08-25T05:30:34.081Z,18.66
2022-08-25T05:35:53.423Z,18.92
2022-08-25T05:41:26.253Z,19.23
2022-08-25T05:46:52.597Z,19.52
2022-08-25T05:52:20.401Z,19.82
2022-08-25T05:57:27.652Z,20.05
2022-08-25T06:02:42.180Z,20.24
2022-08-25T06:07:51.616Z,20.44
2022-08-25T06:13:07.609Z,20.63
2022-08-25T06:18:22.581Z,20.75
2022-08-25T06:23:36.761Z,20.91
2022-08-25T06:28:55.373Z,21.02
2022-08-25T06:33:59.356Z,21.16
2022-08-25T06:39:02.647Z,21.29
2022-08-25T06:44:11.731Z,21.43
2022-08-25T06:49:21.065Z,21.56
2022-08-25T06:54:23.390Z,21.74
2022-08-25T06:59:32.314Z,21.89
2022-08-25T07:04:38.570Z,22.09
2022-08-25T07:09:43.923Z,22.30
2022-08-25T07:15:03.526Z,22.53
2022-08-25T07:20:14.915Z,22.72
2022-08-25T07:25:36.400Z,22.94
2022-08-25T07:30:38.548Z,23.20
2022-08-25T07:35:44.315Z,23.39
2022-08-25T07:40:54.592Z,23.56
2022-08-25T07:46:20.866Z,23.83
2022-08-25T07:51:23.488Z,24.02
2022-08-25T07:56:34.590Z,24.13
2022-08-25T08:01:38.574Z,24.32
2022-08-25T08:07:02.986Z,24.49
2022-08-25T08:12:12.098Z,24.57
2022-08-25T08:17:18.513Z,24.62
2022-08-25T08:22:21.878Z,24.74
2022-08-25T08:27:33.521Z,24.90
2022-08-25T08:33:08.206Z,25.03
2022-08-25T08:38:20.873Z,25.15
2022-08-25T08:43:31.488Z,25.20
2022-08-25T08:49:05.215Z,25.33
2022-08-25T08:54:19.403Z,25.48
2022-08-25T08:59:30.158Z,25.62
2022-08-25T09:05:15.990Z,25.75
2022-08-25T09:10:25.205Z,25.82
2022-08-25T09:16:33.799Z,25.94
2022-08-25T09:22:33.982Z,26.09
2022-08-25T09:27:44.182Z,26.17
2022-08-25T09:33:05.281Z,26.28
2022-08-25T09:38:13.365Z,26.35
2022-08-25T09:43:34.498Z,26.40
2022-08-25T09:48:56.704Z,26.54
2022-08-25T09:54:17.998Z,26.57
2022-08-25T09:59:39.994Z,26.64
2022-08-25T10:05:25.303Z,26.77
2022-08-25T10:10:41.884Z,26.99
2022-08-25T10:16:20.301Z,27.31
2022-08-25T10:21:26.026Z,27.40
2022-08-25T10:26:48.937Z,27.34
2022-08-25T10:32:00.279Z,27.39
2022-08-25T10:37:33.351Z,27.64
2022-08-25T10:43:08.188Z,27.96
2022-08-25T10:48:45.690Z,28.30
2022-08-25T10:54:19.782Z,28.62
2022-08-25T11:00:03.918Z,28.73
2022-08-25T11:05:45.344Z,28.88
2022-08-25T11:11:26.344Z,28.95
2022-08-25T11:16:35.989Z,29.09
2022-08-25T11:22:10.101Z,29.27
2022-08-25T11:27:21.662Z,29.51
2022-08-25T11:32:27.546Z,29.68
2022-08-25T11:37:33.808Z,29.60
2022-08-25T11:42:43.113Z,29.48
2022-08-25T11:48:15.985Z,29.46
2022-08-25T11:53:42.161Z,29.61
2022-08-25T11:58:50.194Z,29.74
2022-08-25T12:04:12.632Z,29.82
2022-08-25T12:09:20.946Z,29.81
2022-08-25T12:14:47.864Z,29.84
2022-08-25T12:19:56.326Z,29.96
2022-08-25T12:25:14.107Z,30.11
2022-08-25T12:30:40.306Z,30.14
2022-08-25T12:36:31.615Z,30.16
2022-08-25T12:41:59.846Z,30.25
2022-08-25T12:47:33.007Z,30.29
2022-08-25T12:52:41.271Z,30.51
2022-08-25T12:58:01.102Z,30.70
2022-08-25T13:03:50.215Z,30.80
2022-08-25T13:09:42.452Z,30.84
2022-08-25T13:14:57.769Z,30.82
2022-08-25T13:20:33.480Z,30.85
2022-08-25T13:26:05.045Z,30.95
2022-08-25T13:31:28.410Z,31.06
2022-08-25T13:36:58.854Z,31.15
2022-08-25T13:42:17.657Z,31.29
2022-08-25T13:47:43.601Z,31.44
2022-08-25T13:53:32.097Z,31.49
2022-08-25T13:58:45.499Z,31.52
2022-08-25T14:03:49.768Z,31.21
2022-08-25T14:08:58.145Z,30.88
2022-08-25T14:14:12.547Z,30.69
2022-08-25T14:19:20.340Z,30.74
2022-08-25T14:24:24.369Z,30.97
2022-08-25T14:29:35.818Z,31.12
2022-08-25T14:34:52.668Z,31.18
2022-08-25T14:39:55.531Z,31.05
2022-08-25T14:45:00.474Z,30.81
2022-08-25T14:50:07.555Z,30.53
2022-08-25T14:55:17.335Z,30.46
2022-08-25T15:00:40.936Z,30.58
2022-08-25T15:05:43.558Z,30.65
2022-08-25T15:10:49.068Z,30.67
2022-08-25T15:15:54.895Z,30.68
2022-08-25T15:21:04.426Z,30.68
2022-08-25T15:26:11.654Z,30.67
2022-08-25T15:31:35.137Z,30.67
2022-08-25T15:36:37.984Z,30.64
2022-08-25T15:41:42.645Z,30.56
2022-08-25T15:46:50.104Z,30.51
2022-08-25T15:52:06.759Z,30.45
2022-08-25T15:57:10.540Z,30.38
2022-08-25T16:02:27.346Z,30.31
2022-08-25T16:07:30.560Z,30.19
2022-08-25T16:12:40.149Z,30.07
2022-08-25T16:17:50.609Z,29.92
2022-08-25T16:23:03.749Z,29.76
2022-08-25T16:28:06.783Z,29.64
2022-08-25T16:33:26.095Z,29.47
2022-08-25T16:38:31.010Z,29.31
2022-08-25T16:43:33.235Z,29.16
2022-08-25T16:48:38.000Z,29.07
2022-08-25T16:54:00.629Z,28.89
2022-08-25T16:59:14.895Z,28.66
2022-08-25T17:04:44.358Z,28.42
2022-08-25T17:10:18.127Z,28.16
2022-08-25T17:15:23.879Z,27.93
2022-08-25T17:20:45.227Z,27.70
2022-08-25T17:26:15.285Z,27.43
2022-08-25T17:31:18.367Z,27.21
2022-08-25T17:36:28.671Z,27.00
2022-08-25T17:41:32.245Z,26.76
2022-08-25T17:46:47.630Z,26.55
2022-08-25T17:52:22.520Z,26.31
2022-08-25T17:57:37.617Z,26.07
2022-08-25T18:02:43.893Z,25.87
2022-08-25T18:07:48.209Z,25.67
2022-08-25T18:13:12.957Z,25.49
2022-08-25T18:18:19.398Z,25.30
2022-08-25T18:23:50.124Z,25.13
2022-08-25T18:28:55.987Z,24.94
2022-08-25T18:34:01.057Z,24.78
2022-08-25T18:39:23.235Z,24.63
2022-08-25T18:44:27.716Z,24.48
2022-08-25T18:49:30.233Z,24.33
2022-08-25T18:54:32.554Z,24.20
2022-08-25T18:59:40.870Z,24.07
2022-08-25T19:04:52.848Z,23.95
2022-08-25T19:09:55.248Z,23.82
2022-08-25T19:14:58.129Z,23.71
2022-08-25T19:20:05.528Z,23.60
2022-08-25T19:25:14.275Z,23.47
2022-08-25T19:30:22.215Z,23.33
2022-08-25T19:35:31.914Z,23.22
2022-08-25T19:40:42.733Z,23.10
2022-08-25T19:45:49.076Z,22.99
2022-08-25T19:50:56.206Z,22.90
2022-08-25T19:56:08.800Z,22.79
2022-08-25T20:01:18.428Z,22.68
2022-08-25T20:06:20.853Z,22.59
2022-08-25T20:11:27.532Z,22.50
2022-08-25T20:16:36.675Z,22.41
2022-08-25T20:21:45.098Z,22.35
2022-08-25T20:27:20.639Z,22.31
2022-08-25T20:32:55.735Z,22.29
2022-08-25T20:38:04.960Z,22.25
2022-08-25T20:43:47.434Z,22.18
2022-08-25T20:49:06.220Z,22.10
2022-08-25T20:55:08.534Z,22.00
2022-08-25T21:00:18.165Z,21.94
2022-08-25T21:05:29.647Z,21.86
2022-08-25T21:11:03.604Z,21.78
2022-08-25T21:16:18.899Z,21.69
2022-08-25T21:21:30.484Z,21.62
2022-08-25T21:26:35.844Z,21.54
2022-08-25T21:31:41.034Z,21.46
2022-08-25T21:36:57.144Z,21.37
2022-08-25T21:47:21.546Z,21.23
2022-08-25T21:52:24.060Z,21.17
2022-08-25T21:57:36.745Z,21.11
2022-08-25T22:02:44.231Z,21.04
2022-08-25T22:07:49.469Z,20.98
2022-08-25T22:12:55.092Z,20.93
2022-08-25T22:17:57.607Z,20.85
2022-08-25T22:23:09.727Z,20.78
2022-08-25T22:28:31.707Z,20.69
2022-08-25T22:33:38.038Z,20.62
2022-08-25T22:38:59.801Z,20.54
2022-08-25T22:44:09.424Z,20.47
2022-08-25T22:49:35.594Z,20.38
2022-08-25T22:54:44.264Z,20.28
2022-08-25T23:00:14.297Z,20.19
2022-08-25T23:05:24.637Z,20.08
2022-08-25T23:10:33.362Z,19.98
2022-08-25T23:15:36.835Z,19.88
2022-08-25T23:21:05.331Z,19.77
2022-08-25T23:27:05.794Z,19.65
2022-08-25T23:32:14.053Z,19.59
2022-08-25T23:37:22.852Z,19.52
2022-08-25T23:42:34.497Z,19.46
2022-08-25T23:47:52.609Z,19.38
2022-08-25T23:52:55.446Z,19.28
2022-08-25T23:58:10.673Z,19.20
